Terminal Aerodrome Forecast
Issued by NWS

Home | Current Version | Previous Version | Text Only | Print | Product List | Glossary On
Versions: 1 2 3 4 5 6 7 8 9 10 11 12 13 14 15 16 17
000
FTUS43 KABR 211700
TAFMBG
TAF
KMBG 211726Z 2118/2218 14011KT P6SM SKC
     FM212300 12007KT P6SM OVC100
     FM220800 08005KT P6SM OVC015
      TEMPO 2210/2213 4SM -SN
     FM221300 34012KT 1SM -SN BR OVC007=

USA.gov is the U.S. government's official web portal to all federal, state and local government web resources and services.